Stewartstown, New Hampshire
Current Conditions -  °F | °C
As of 3:13 PM on Wednesday 26 Nov 2014 (Local Time) from KBML Reporting Station
Heavy Snow Heavy Snow  
Wind Chill: 30°   Ceiling: 800
Heat Index: 30°   Visibility: 0.25mi
Dew Point: 27°   Wind: 3mph
Humidity: 88%   Direction: 350°N
Pressure: 30.09"   Gusts: NA
Location:  44.8906°N, 71.3771°W
Report Text: KBML 262013Z AUTO 35003KT 1/4SM +SN FZFG VV008 M01/M03 A3009 RMK AO2 PRESFR P0003 T10111028
Loading
Personal Weather Stations






























Interactive Weather Map New forecast layout! Learn more

10-Day Weather Forecast

Advertisements
Track Severe Weather on mobile